Time;durP1;ratioP1;P1;durP2;ratioP2;P2;SDS_P1;SDS_P2;PMS_P1;PMS_P2;Temp;Humidity;BMP_temperature;BMP_pressure;BME280_temperature;BME280_humidity;BME280_pressure;Samples;Min_cycle;Max_cycle;Signal;HPM_P1;HPM_P2
2021/10/01 00:01:28;;;;;;;6.10;5.38;;;;;;;;;;5028040;28;20041;-55
2021/10/01 00:03:55;;;;;;;6.70;6.40;;;;;;;;;;5032444;28;20481;-54
2021/10/01 00:06:21;;;;;;;6.35;5.80;;;;;;;;;;5031554;28;20045;-55
2021/10/01 00:08:48;;;;;;;5.03;4.72;;;;;;;;;;5031355;28;20041;-55
2021/10/01 00:11:15;;;;;;;5.68;5.40;;;;;;;;;;5029238;28;20052;-54
2021/10/01 00:13:42;;;;;;;5.70;5.50;;;;;;;;;;5030262;28;20045;-55
2021/10/01 00:16:09;;;;;;;5.82;5.35;;;;;;;;;;5031210;28;20041;-54
2021/10/01 00:18:37;;;;;;;5.20;5.00;;;;;;;;;;5030089;28;20033;-55
2021/10/01 00:21:04;;;;;;;6.75;6.35;;;;;;;;;;5028058;28;20368;-56
2021/10/01 00:23:31;;;;;;;6.43;5.78;;;;;;;;;;5031754;28;20037;-53
2021/10/01 00:25:58;;;;;;;7.00;6.50;;;;;;;;;;5029770;28;20045;-54
2021/10/01 00:28:25;;;;;;;5.95;5.75;;;;;;;;;;5032049;28;20053;-54
2021/10/01 00:30:52;;;;;;;6.53;6.15;;;;;;;;;;5028362;28;20520;-55
2021/10/01 00:33:19;;;;;;;5.43;5.13;;;;;;;;;;5029711;28;20033;-55
2021/10/01 00:35:45;;;;;;;6.45;5.63;;;;;;;;;;5029972;28;20041;-55
2021/10/01 00:38:12;;;;;;;6.82;6.53;;;;;;;;;;5022650;28;20077;-55
2021/10/01 00:40:39;;;;;;;6.03;5.72;;;;;;;;;;5031515;28;20083;-54
2021/10/01 00:43:06;;;;;;;5.78;5.45;;;;;;;;;;5029123;28;20041;-55
2021/10/01 00:45:33;;;;;;;5.82;5.53;;;;;;;;;;5029718;28;20516;-54
2021/10/01 00:48:00;;;;;;;5.88;5.68;;;;;;;;;;5032266;28;20080;-55
2021/10/01 00:50:26;;;;;;;6.47;6.07;;;;;;;;;;5031208;28;20037;-54
2021/10/01 00:52:53;;;;;;;6.72;6.28;;;;;;;;;;5031077;28;20049;-55
2021/10/01 00:55:20;;;;;;;5.13;4.93;;;;;;;;;;5030448;28;20107;-54
2021/10/01 00:57:47;;;;;;;4.95;4.75;;;;;;;;;;5028536;28;20485;-54
2021/10/01 01:00:29;;;;;;;6.55;6.03;;;;;;;;;;5029891;28;20065;-55
2021/10/01 01:02:57;;;;;;;4.97;4.68;;;;;;;;;;5029600;28;20496;-55
2021/10/01 01:05:30;;;;;;;5.68;5.38;;;;;;;;;;5030495;28;20033;-55
2021/10/01 01:08:00;;;;;;;4.68;4.47;;;;;;;;;;5030253;28;20049;-55
2021/10/01 01:10:38;;;;;;;6.53;6.32;;;;;;;;;;5030432;28;20099;-56
2021/10/01 01:13:08;;;;;;;5.65;5.45;;;;;;;;;;5030537;28;20477;-55
2021/10/01 01:15:37;;;;;;;5.57;4.13;;;;;;;;;;5029944;28;20029;-55
2021/10/01 01:18:10;;;;;;;5.35;5.07;;;;;;;;;;5028545;28;20037;-55
2021/10/01 01:20:37;;;;;;;5.40;4.93;;;;;;;;;;5030572;28;20124;-55
2021/10/01 01:23:31;;;;;;;5.88;4.40;;;;;;;;;;5029889;28;20037;-55
2021/10/01 01:25:58;;;;;;;5.22;4.75;;;;;;;;;;5017188;28;20045;-55
2021/10/01 01:28:24;;;;;;;5.63;5.25;;;;;;;;;;5030693;28;20069;-55
2021/10/01 01:30:55;;;;;;;6.68;5.13;;;;;;;;;;5030331;28;20394;-54
2021/10/01 01:33:23;;;;;;;4.57;4.38;;;;;;;;;;5030146;28;20038;-55
2021/10/01 01:35:53;;;;;;;4.78;4.68;;;;;;;;;;5030859;28;20095;-55
2021/10/01 01:38:26;;;;;;;4.63;4.32;;;;;;;;;;5027879;28;20133;-57
2021/10/01 01:40:54;;;;;;;5.55;5.22;;;;;;;;;;5029248;28;20699;-55
2021/10/01 01:43:21;;;;;;;5.45;5.32;;;;;;;;;;5029873;28;20045;-55
2021/10/01 01:45:48;;;;;;;6.15;5.85;;;;;;;;;;5029498;28;20029;-55
2021/10/01 01:48:17;;;;;;;5.93;5.55;;;;;;;;;;5028769;28;20045;-55
2021/10/01 01:50:44;;;;;;;6.78;6.38;;;;;;;;;;5028584;28;20081;-55
2021/10/01 01:53:12;;;;;;;7.00;6.47;;;;;;;;;;5030440;28;20474;-55
2021/10/01 01:55:39;;;;;;;6.63;6.22;;;;;;;;;;5026610;28;20055;-55
2021/10/01 01:58:06;;;;;;;6.97;6.10;;;;;;;;;;5029708;28;20041;-55
2021/10/01 02:00:33;;;;;;;5.38;5.07;;;;;;;;;;5029618;28;20049;-55
2021/10/01 02:03:01;;;;;;;7.05;6.55;;;;;;;;;;5029473;28;20117;-56
2021/10/01 02:05:28;;;;;;;6.38;5.97;;;;;;;;;;5029220;28;20537;-55
2021/10/01 02:07:55;;;;;;;7.47;7.07;;;;;;;;;;5027591;28;20045;-55
2021/10/01 02:10:23;;;;;;;7.18;6.97;;;;;;;;;;5028456;28;20067;-55
2021/10/01 02:12:53;;;;;;;6.15;5.95;;;;;;;;;;5029869;28;20037;-56
2021/10/01 02:15:21;;;;;;;7.10;6.57;;;;;;;;;;5028657;28;20103;-55
2021/10/01 02:17:49;;;;;;;6.15;5.85;;;;;;;;;;5029789;28;20129;-55
2021/10/01 02:20:16;;;;;;;7.10;6.70;;;;;;;;;;5028506;28;20477;-55
2021/10/01 02:22:43;;;;;;;6.85;6.40;;;;;;;;;;5029297;28;20076;-55
2021/10/01 02:27:59;;;;;;;5.10;4.85;;;;;;;;;;5028878;28;20033;-56
2021/10/01 02:30:27;;;;;;;7.63;4.95;;;;;;;;;;5027514;28;20049;-55
2021/10/01 02:32:59;;;;;;;6.65;6.00;;;;;;;;;;5028769;28;20071;-55
2021/10/01 02:35:26;;;;;;;5.85;5.63;;;;;;;;;;5027695;28;20037;-55
2021/10/01 02:37:53;;;;;;;5.15;5.05;;;;;;;;;;5028710;28;20045;-55
2021/10/01 02:40:20;;;;;;;8.13;5.57;;;;;;;;;;5028937;28;20520;-56
2021/10/01 02:42:47;;;;;;;6.07;5.80;;;;;;;;;;5028881;28;20037;-56
2021/10/01 02:45:14;;;;;;;6.20;5.70;;;;;;;;;;5029495;28;20067;-55
2021/10/01 02:47:41;;;;;;;7.60;6.97;;;;;;;;;;5027142;28;20053;-55
2021/10/01 02:50:09;;;;;;;6.43;5.85;;;;;;;;;;5028733;28;20042;-56
2021/10/01 02:52:48;;;;;;;6.90;6.65;;;;;;;;;;5028616;28;20065;-55
2021/10/01 02:55:24;;;;;;;4.80;4.60;;;;;;;;;;5018786;28;20091;-55
2021/10/01 02:58:04;;;;;;;6.47;6.05;;;;;;;;;;5028742;28;20543;-55
2021/10/01 03:00:32;;;;;;;5.68;5.38;;;;;;;;;;5028454;28;20080;-56
2021/10/01 03:03:02;;;;;;;7.05;6.55;;;;;;;;;;5028241;28;20037;-55
2021/10/01 03:05:29;;;;;;;7.65;7.25;;;;;;;;;;5029756;28;20095;-55
2021/10/01 03:07:56;;;;;;;6.63;6.22;;;;;;;;;;5027963;28;20033;-55
2021/10/01 03:10:23;;;;;;;6.65;6.35;;;;;;;;;;5027949;28;20128;-56
2021/10/01 03:12:52;;;;;;;6.88;6.50;;;;;;;;;;5027762;28;20041;-56
2021/10/01 03:15:19;;;;;;;7.15;6.95;;;;;;;;;;5028735;28;20040;-56
2021/10/01 03:17:46;;;;;;;8.98;8.45;;;;;;;;;;5028745;28;20084;-55
2021/10/01 03:20:13;;;;;;;8.85;8.55;;;;;;;;;;5026504;28;20111;-55
2021/10/01 03:22:41;;;;;;;8.98;8.68;;;;;;;;;;5023101;28;20037;-56
2021/10/01 03:25:10;;;;;;;10.25;9.57;;;;;;;;;;5029994;28;20041;-55
2021/10/01 03:27:38;;;;;;;7.75;7.55;;;;;;;;;;5028288;28;20117;-56
2021/10/01 03:30:06;;;;;;;8.50;8.20;;;;;;;;;;5028203;28;20045;-55
2021/10/01 03:32:33;;;;;;;7.88;7.50;;;;;;;;;;5025576;28;20037;-55
2021/10/01 03:35:03;;;;;;;8.40;8.02;;;;;;;;;;5028254;28;20068;-56
2021/10/01 03:37:30;;;;;;;9.25;8.63;;;;;;;;;;5030060;28;20037;-55
2021/10/01 03:39:58;;;;;;;9.15;7.88;;;;;;;;;;5030085;28;20041;-56
2021/10/01 03:42:25;;;;;;;9.88;9.20;;;;;;;;;;5033822;28;20073;-55
2021/10/01 03:44:52;;;;;;;8.30;7.72;;;;;;;;;;5030610;28;20369;-55
2021/10/01 03:47:19;;;;;;;8.90;8.50;;;;;;;;;;5031742;28;20525;-55
2021/10/01 03:49:47;;;;;;;9.27;8.88;;;;;;;;;;5031273;28;20065;-55
2021/10/01 03:52:13;;;;;;;9.25;8.60;;;;;;;;;;5029914;28;20030;-56
2021/10/01 03:54:43;;;;;;;7.90;7.47;;;;;;;;;;5022918;28;20116;-56
2021/10/01 03:57:09;;;;;;;8.95;8.65;;;;;;;;;;5031542;28;20512;-56
2021/10/01 03:59:36;;;;;;;7.22;6.93;;;;;;;;;;5031594;28;20033;-56
2021/10/01 04:02:03;;;;;;;8.23;7.60;;;;;;;;;;5032460;28;20493;-56
2021/10/01 04:04:31;;;;;;;7.55;7.05;;;;;;;;;;5031287;28;20132;-56
2021/10/01 04:06:58;;;;;;;9.07;8.77;;;;;;;;;;5029207;28;20038;-55
2021/10/01 04:09:24;;;;;;;8.93;7.88;;;;;;;;;;5029804;28;20478;-57
2021/10/01 04:11:54;;;;;;;8.77;8.48;;;;;;;;;;5032524;28;20076;-55
2021/10/01 04:14:21;;;;;;;8.40;8.00;;;;;;;;;;5032079;28;20042;-55
2021/10/01 04:16:48;;;;;;;7.43;6.93;;;;;;;;;;5032047;28;20046;-55
2021/10/01 04:19:15;;;;;;;7.15;6.82;;;;;;;;;;5028964;28;20076;-56
2021/10/01 04:22:02;;;;;;;7.50;6.97;;;;;;;;;;5031547;28;20394;-55
2021/10/01 04:24:29;;;;;;;8.20;7.75;;;;;;;;;;5030095;28;20046;-56
2021/10/01 04:26:55;;;;;;;7.25;6.78;;;;;;;;;;5030531;28;20537;-56
2021/10/01 04:29:22;;;;;;;5.60;5.32;;;;;;;;;;5026206;28;20521;-56
2021/10/01 04:31:49;;;;;;;6.90;6.28;;;;;;;;;;5029804;28;20033;-55
2021/10/01 04:34:16;;;;;;;5.78;5.57;;;;;;;;;;5031582;28;20588;-55
2021/10/01 04:36:42;;;;;;;4.70;4.60;;;;;;;;;;5028638;28;20041;-55
2021/10/01 04:39:09;;;;;;;7.68;7.28;;;;;;;;;;5030627;28;20691;-56
2021/10/01 04:41:36;;;;;;;8.98;8.48;;;;;;;;;;5029837;28;20054;-56
2021/10/01 04:44:03;;;;;;;7.38;6.97;;;;;;;;;;5031722;28;20095;-55
2021/10/01 04:46:29;;;;;;;8.98;8.68;;;;;;;;;;5030202;28;20558;-55
2021/10/01 04:48:56;;;;;;;9.18;8.75;;;;;;;;;;5027394;28;20481;-55
2021/10/01 04:51:23;;;;;;;11.13;10.80;;;;;;;;;;5025754;28;20041;-55
2021/10/01 04:53:50;;;;;;;11.15;10.48;;;;;;;;;;5029551;28;20060;-55
2021/10/01 04:56:17;;;;;;;11.90;11.30;;;;;;;;;;5028740;28;20052;-55
2021/10/01 04:58:44;;;;;;;72.43;15.38;;;;;;;;;;5030289;28;20034;-55
2021/10/01 05:01:11;;;;;;;73.65;14.65;;;;;;;;;;5028777;28;20083;-56
2021/10/01 05:03:38;;;;;;;11.93;11.50;;;;;;;;;;5030435;28;20044;-56
2021/10/01 05:06:05;;;;;;;13.10;12.65;;;;;;;;;;5028171;28;20045;-55
2021/10/01 05:08:32;;;;;;;12.60;12.27;;;;;;;;;;5029985;28;20033;-55
2021/10/01 05:10:59;;;;;;;14.02;13.45;;;;;;;;;;5021449;28;20096;-55
2021/10/01 05:13:29;;;;;;;14.27;13.25;;;;;;;;;;5026243;28;20034;-55
2021/10/01 05:15:56;;;;;;;14.73;13.50;;;;;;;;;;5028320;28;20046;-56
2021/10/01 05:18:23;;;;;;;13.93;13.10;;;;;;;;;;5025235;28;20121;-55
2021/10/01 05:20:50;;;;;;;12.80;12.20;;;;;;;;;;5028849;28;20037;-55
2021/10/01 05:23:17;;;;;;;14.88;13.88;;;;;;;;;;5025671;28;20042;-55
2021/10/01 05:25:43;;;;;;;15.75;14.68;;;;;;;;;;5022778;28;20049;-60
2021/10/01 05:28:10;;;;;;;15.32;14.52;;;;;;;;;;5029794;28;20064;-60
2021/10/01 05:30:37;;;;;;;12.38;11.90;;;;;;;;;;5029928;28;20046;-60
2021/10/01 05:33:07;;;;;;;11.82;11.30;;;;;;;;;;5029803;28;20073;-59
2021/10/01 05:35:35;;;;;;;11.60;10.82;;;;;;;;;;5027784;28;20038;-59
2021/10/01 05:38:02;;;;;;;10.20;9.80;;;;;;;;;;5029449;28;20057;-59
2021/10/01 05:40:29;;;;;;;9.70;9.27;;;;;;;;;;5024619;28;20070;-59
2021/10/01 05:43:00;;;;;;;8.68;8.27;;;;;;;;;;5023372;28;20026;-58
2021/10/01 05:45:26;;;;;;;8.25;7.57;;;;;;;;;;5028806;28;20076;-60
2021/10/01 05:47:53;;;;;;;7.10;6.60;;;;;;;;;;5027374;28;20072;-60
2021/10/01 05:50:22;;;;;;;7.22;5.00;;;;;;;;;;5029050;28;20441;-61
2021/10/01 05:52:53;;;;;;;4.35;3.88;;;;;;;;;;5029449;28;20060;-59
2021/10/01 05:55:19;;;;;;;4.13;3.83;;;;;;;;;;5028766;28;20092;-59
2021/10/01 05:57:47;;;;;;;4.57;3.75;;;;;;;;;;5030448;28;20339;-60
2021/10/01 06:00:14;;;;;;;5.47;4.97;;;;;;;;;;5027488;28;20045;-60
2021/10/01 06:02:42;;;;;;;6.72;4.80;;;;;;;;;;5028435;28;20064;-60
2021/10/01 06:05:09;;;;;;;5.07;4.78;;;;;;;;;;5029612;28;20115;-61
2021/10/01 06:07:37;;;;;;;5.20;4.05;;;;;;;;;;5030079;28;20041;-59
2021/10/01 06:10:04;;;;;;;5.90;4.22;;;;;;;;;;5018588;28;20030;-59
2021/10/01 06:12:32;;;;;;;4.45;4.05;;;;;;;;;;5027457;28;20379;-60
2021/10/01 06:14:59;;;;;;;5.00;4.70;;;;;;;;;;5015298;28;20038;-59
2021/10/01 06:17:25;;;;;;;5.50;5.03;;;;;;;;;;5028747;28;20037;-59
2021/10/01 06:19:52;;;;;;;5.43;4.95;;;;;;;;;;5027808;28;20076;-60
2021/10/01 06:22:19;;;;;;;5.10;4.40;;;;;;;;;;5028782;28;20033;-59
2021/10/01 06:24:48;;;;;;;5.53;4.22;;;;;;;;;;5027255;28;20565;-60
2021/10/01 06:27:18;;;;;;;4.30;4.10;;;;;;;;;;5023635;28;20059;-60
2021/10/01 06:29:45;;;;;;;4.32;4.10;;;;;;;;;;5026137;28;20452;-61
2021/10/01 06:32:13;;;;;;;7.55;2.63;;;;;;;;;;5025344;28;20096;-59
2021/10/01 06:34:39;;;;;;;3.25;2.90;;;;;;;;;;5027660;28;20393;-58
2021/10/01 06:37:06;;;;;;;5.68;2.92;;;;;;;;;;5030640;28;20067;-60
2021/10/01 06:39:33;;;;;;;3.00;2.70;;;;;;;;;;5026012;28;20084;-59
2021/10/01 06:41:59;;;;;;;3.88;3.72;;;;;;;;;;5027761;28;20462;-59
2021/10/01 06:44:30;;;;;;;5.97;3.50;;;;;;;;;;5011703;28;20501;-59
2021/10/01 06:47:09;;;;;;;6.03;3.65;;;;;;;;;;5027181;28;20050;-60
2021/10/01 06:49:49;;;;;;;5.90;2.63;;;;;;;;;;5026781;28;20068;-58
2021/10/01 08:20:31;;;;;;;0.98;0.73;;;;;;;;;;5025468;28;20422;-58
2021/10/01 08:22:57;;;;;;;0.70;0.70;;;;;;;;;;5029364;28;20045;-59
2021/10/01 08:25:24;;;;;;;2.15;0.95;;;;;;;;;;5031530;28;20068;-58
2021/10/01 08:27:51;;;;;;;1.08;0.90;;;;;;;;;;5030392;28;20432;-58
2021/10/01 08:30:18;;;;;;;4.00;0.90;;;;;;;;;;5027292;28;20049;-59
2021/10/01 08:32:45;;;;;;;1.02;1.00;;;;;;;;;;5029613;28;20069;-57
2021/10/01 08:35:12;;;;;;;2.20;0.75;;;;;;;;;;5028603;28;20033;-57
2021/10/01 08:37:38;;;;;;;0.88;0.70;;;;;;;;;;5020230;28;20084;-58
2021/10/01 08:40:06;;;;;;;0.75;0.75;;;;;;;;;;5026840;28;20604;-57
2021/10/01 08:42:33;;;;;;;2.42;0.90;;;;;;;;;;5029441;28;20508;-57
2021/10/01 08:45:01;;;;;;;0.95;0.95;;;;;;;;;;5013487;28;20385;-58
2021/10/01 08:47:28;;;;;;;1.77;0.98;;;;;;;;;;5030144;28;20072;-58
2021/10/01 08:49:59;;;;;;;1.20;0.75;;;;;;;;;;5030255;28;20065;-57
2021/10/01 08:52:26;;;;;;;1.40;0.80;;;;;;;;;;5019249;28;20120;-57
2021/10/01 08:54:53;;;;;;;0.75;0.75;;;;;;;;;;5026925;28;20037;-58
2021/10/01 08:57:20;;;;;;;0.70;0.68;;;;;;;;;;5029427;28;20477;-57
2021/10/01 08:59:47;;;;;;;0.60;0.60;;;;;;;;;;5031548;28;20478;-57
2021/10/01 09:02:14;;;;;;;0.70;0.70;;;;;;;;;;5030392;28;20041;-57
2021/10/01 09:04:41;;;;;;;0.68;0.68;;;;;;;;;;5029894;28;20108;-59
2021/10/01 09:07:08;;;;;;;0.60;0.60;;;;;;;;;;5030038;28;20041;-59
2021/10/01 09:09:39;;;;;;;0.60;0.60;;;;;;;;;;5030104;28;20049;-57
2021/10/01 09:12:07;;;;;;;0.60;0.60;;;;;;;;;;5029752;28;20103;-57
2021/10/01 09:15:04;;;;;;;0.70;0.70;;;;;;;;;;5028400;28;20046;-57
2021/10/01 09:17:31;;;;;;;0.60;0.60;;;;;;;;;;5025549;28;20061;-58
2021/10/01 09:19:58;;;;;;;0.70;0.70;;;;;;;;;;5024930;28;20053;-57
2021/10/01 09:22:25;;;;;;;0.70;0.70;;;;;;;;;;5025425;28;20054;-57
2021/10/01 09:24:52;;;;;;;0.70;0.70;;;;;;;;;;5026720;28;20037;-58
2021/10/01 09:27:32;;;;;;;0.80;0.70;;;;;;;;;;4999495;28;20075;-58
2021/10/01 09:29:59;;;;;;;1.95;0.60;;;;;;;;;;5025908;28;20529;-57
2021/10/01 09:32:25;;;;;;;0.55;0.55;;;;;;;;;;5028089;28;20034;-58
2021/10/01 09:34:52;;;;;;;0.50;0.50;;;;;;;;;;5026905;28;20144;-58
2021/10/01 09:37:21;;;;;;;0.60;0.60;;;;;;;;;;5027732;28;20091;-59
2021/10/01 09:39:53;;;;;;;0.60;0.60;;;;;;;;;;5009386;28;20054;-58
2021/10/01 09:42:22;;;;;;;6.35;0.70;;;;;;;;;;5027569;28;20135;-57
2021/10/01 09:44:51;;;;;;;0.60;0.60;;;;;;;;;;5028290;28;20053;-58
2021/10/01 09:47:22;;;;;;;1.88;0.52;;;;;;;;;;5027172;28;20045;-58
2021/10/01 09:49:57;;;;;;;0.63;0.50;;;;;;;;;;5026947;28;20460;-58
2021/10/01 09:52:24;;;;;;;3.10;0.60;;;;;;;;;;5023870;28;20045;-58
2021/10/01 09:55:03;;;;;;;0.43;0.43;;;;;;;;;;5026952;28;20232;-59
2021/10/01 09:57:30;;;;;;;0.60;0.50;;;;;;;;;;5029614;28;20048;-58
2021/10/01 09:59:56;;;;;;;0.50;0.47;;;;;;;;;;5030652;28;20091;-58
2021/10/01 10:02:23;;;;;;;0.40;0.40;;;;;;;;;;5027062;28;20057;-58
2021/10/01 10:04:50;;;;;;;0.40;0.40;;;;;;;;;;5027867;28;20546;-59
2021/10/01 10:07:27;;;;;;;0.30;0.30;;;;;;;;;;5027583;28;20120;-58
2021/10/01 10:09:55;;;;;;;0.40;0.40;;;;;;;;;;5026549;28;20041;-58
2021/10/01 10:12:37;;;;;;;0.40;0.40;;;;;;;;;;5028459;28;20504;-58
2021/10/01 10:15:05;;;;;;;0.40;0.40;;;;;;;;;;5030054;28;20033;-59
2021/10/01 10:17:32;;;;;;;0.30;0.30;;;;;;;;;;5026885;28;20095;-58
2021/10/01 10:20:00;;;;;;;0.40;0.40;;;;;;;;;;5022187;28;20080;-59
2021/10/01 10:22:28;;;;;;;0.40;0.40;;;;;;;;;;5021493;28;20033;-58
2021/10/01 10:24:55;;;;;;;0.30;0.30;;;;;;;;;;5028367;28;20540;-58
2021/10/01 10:27:23;;;;;;;0.30;0.30;;;;;;;;;;5027814;28;20045;-58
2021/10/01 10:29:51;;;;;;;0.40;0.40;;;;;;;;;;5027544;28;20050;-59
2021/10/01 10:32:19;;;;;;;0.80;0.30;;;;;;;;;;5026258;28;20047;-58
2021/10/01 10:34:59;;;;;;;0.40;0.40;;;;;;;;;;5022163;28;20064;-59
2021/10/01 10:37:35;;;;;;;0.30;0.30;;;;;;;;;;5029766;28;20151;-57
2021/10/01 10:40:05;;;;;;;0.35;0.35;;;;;;;;;;5026454;28;20052;-58
2021/10/01 10:42:33;;;;;;;0.30;0.30;;;;;;;;;;5025047;28;21733;-58
2021/10/01 10:45:09;;;;;;;0.40;0.40;;;;;;;;;;5025636;28;20386;-58
2021/10/01 10:47:43;;;;;;;0.32;0.32;;;;;;;;;;5023820;28;20632;-58
2021/10/01 10:50:25;;;;;;;0.30;0.30;;;;;;;;;;5026666;28;20132;-57
2021/10/01 10:53:04;;;;;;;1.27;0.40;;;;;;;;;;5025517;28;20025;-58
2021/10/01 10:55:31;;;;;;;0.68;0.40;;;;;;;;;;5019561;28;20038;-59
2021/10/01 10:57:58;;;;;;;0.40;0.40;;;;;;;;;;5026500;28;20096;-57
2021/10/01 11:00:28;;;;;;;0.30;0.30;;;;;;;;;;5019113;28;20435;-57
2021/10/01 11:03:13;;;;;;;0.30;0.30;;;;;;;;;;5028520;28;20096;-58
2021/10/01 11:05:40;;;;;;;0.63;0.40;;;;;;;;;;5026382;28;20444;-57
2021/10/01 11:08:07;;;;;;;0.30;0.30;;;;;;;;;;5028905;28;20445;-58
2021/10/01 11:10:37;;;;;;;0.30;0.30;;;;;;;;;;5019130;28;20065;-58
2021/10/01 11:13:19;;;;;;;0.50;0.35;;;;;;;;;;5019911;28;20095;-58
2021/10/01 11:16:04;;;;;;;0.30;0.30;;;;;;;;;;5011835;28;20050;-58
2021/10/01 11:18:31;;;;;;;0.40;0.40;;;;;;;;;;5027365;28;20075;-58
2021/10/01 11:20:58;;;;;;;0.30;0.30;;;;;;;;;;5026773;28;20192;-57
2021/10/01 11:23:25;;;;;;;0.30;0.30;;;;;;;;;;5024369;28;20073;-57
2021/10/01 11:25:52;;;;;;;0.30;0.30;;;;;;;;;;5020887;28;20041;-59
2021/10/01 11:28:31;;;;;;;0.30;0.30;;;;;;;;;;5027143;28;20441;-58
2021/10/01 11:30:57;;;;;;;0.32;0.30;;;;;;;;;;5019823;28;20044;-58
2021/10/01 11:33:24;;;;;;;0.40;0.40;;;;;;;;;;5026786;28;20049;-58
2021/10/01 11:35:53;;;;;;;0.30;0.30;;;;;;;;;;5028480;28;20033;-59
2021/10/01 11:38:28;;;;;;;0.30;0.30;;;;;;;;;;5026826;28;20039;-56
2021/10/01 11:41:06;;;;;;;0.30;0.30;;;;;;;;;;5027948;28;20057;-56
2021/10/01 11:43:43;;;;;;;0.30;0.30;;;;;;;;;;5023124;28;20095;-55
2021/10/01 11:46:12;;;;;;;0.75;0.30;;;;;;;;;;5026459;28;20504;-57
2021/10/01 11:48:39;;;;;;;0.30;0.30;;;;;;;;;;5029130;28;20037;-56
2021/10/01 11:51:10;;;;;;;0.30;0.30;;;;;;;;;;5027227;28;20069;-57
2021/10/01 11:53:37;;;;;;;1.38;0.30;;;;;;;;;;5029281;28;20045;-55
2021/10/01 11:56:07;;;;;;;0.30;0.30;;;;;;;;;;5027068;28;20034;-55
2021/10/01 11:58:37;;;;;;;0.30;0.30;;;;;;;;;;5029837;28;20033;-56
2021/10/01 12:01:12;;;;;;;0.30;0.30;;;;;;;;;;5032250;28;20044;-56
2021/10/01 12:03:49;;;;;;;0.30;0.30;;;;;;;;;;5030392;28;20048;-56
2021/10/01 12:06:19;;;;;;;0.35;0.30;;;;;;;;;;5032298;28;20154;-56
2021/10/01 12:08:53;;;;;;;0.30;0.30;;;;;;;;;;5028151;28;20060;-56
2021/10/01 12:11:31;;;;;;;0.30;0.30;;;;;;;;;;5025523;28;20045;-56
2021/10/01 12:14:17;;;;;;;0.30;0.30;;;;;;;;;;5030459;28;20095;-56
2021/10/01 12:17:14;;;;;;;0.32;0.32;;;;;;;;;;5028912;28;20489;-56
2021/10/01 12:19:41;;;;;;;0.30;0.30;;;;;;;;;;5008646;28;20057;-56
2021/10/01 12:22:09;;;;;;;0.40;0.40;;;;;;;;;;5010979;28;20517;-57
2021/10/01 12:24:53;;;;;;;0.30;0.30;;;;;;;;;;5004825;28;20098;-56
2021/10/01 12:27:41;;;;;;;0.98;0.40;;;;;;;;;;5003175;28;20137;-56
2021/10/01 12:30:08;;;;;;;0.40;0.40;;;;;;;;;;5009294;28;20061;-57
2021/10/01 12:32:35;;;;;;;0.30;0.30;;;;;;;;;;5007847;28;20089;-56
2021/10/01 12:35:04;;;;;;;0.30;0.30;;;;;;;;;;5009960;28;20490;-56
2021/10/01 12:37:37;;;;;;;0.50;0.40;;;;;;;;;;5007780;28;20062;-57
2021/10/01 12:40:04;;;;;;;0.40;0.40;;;;;;;;;;5007936;28;20096;-56
2021/10/01 12:42:32;;;;;;;0.30;0.30;;;;;;;;;;5008636;28;20050;-47
2021/10/01 12:45:05;;;;;;;0.30;0.30;;;;;;;;;;5009007;28;20046;-46
2021/10/01 12:47:31;;;;;;;;;;;;;;;;;;5009833;28;20049;-46
2021/10/01 12:50:03;;;;;;;0.30;0.30;;;;;;;;;;5009692;28;20459;-46
2021/10/01 12:52:30;;;;;;;0.20;0.20;;;;;;;;;;5008126;28;20104;-48
2021/10/01 12:55:01;;;;;;;0.30;0.30;;;;;;;;;;5008240;28;20112;-46
2021/10/01 12:57:28;;;;;;;0.30;0.30;;;;;;;;;;5020958;28;20493;-50
2021/10/01 12:59:55;;;;;;;0.43;0.30;;;;;;;;;;5028803;28;20125;-48
2021/10/01 13:02:26;;;;;;;0.30;0.30;;;;;;;;;;5027105;28;20087;-47
2021/10/01 13:04:55;;;;;;;0.30;0.30;;;;;;;;;;5029474;28;20516;-46
2021/10/01 13:07:24;;;;;;;0.60;0.30;;;;;;;;;;5030873;28;20033;-47
2021/10/01 13:09:50;;;;;;;0.30;0.30;;;;;;;;;;5030213;28;20140;-50
2021/10/01 13:12:45;;;;;;;0.30;0.30;;;;;;;;;;5028966;28;20763;-46
2021/10/01 13:15:12;;;;;;;0.20;0.20;;;;;;;;;;5028254;28;20068;-47
2021/10/01 13:17:39;;;;;;;0.30;0.30;;;;;;;;;;5015931;28;20073;-46
2021/10/01 13:20:07;;;;;;;0.20;0.20;;;;;;;;;;5027966;28;20501;-48
2021/10/01 13:22:52;;;;;;;0.20;0.20;;;;;;;;;;5030034;28;20034;-48
2021/10/01 13:25:26;;;;;;;0.30;0.30;;;;;;;;;;5031063;28;20046;-46
2021/10/01 13:27:54;;;;;;;0.30;0.30;;;;;;;;;;5028641;28;20107;-47
2021/10/01 13:30:21;;;;;;;0.20;0.20;;;;;;;;;;5018133;28;20045;-45
2021/10/01 13:32:49;;;;;;;0.30;0.30;;;;;;;;;;5030860;28;20461;-48
2021/10/01 13:35:16;;;;;;;0.43;0.30;;;;;;;;;;5026764;28;20073;-46
2021/10/01 13:37:43;;;;;;;0.30;0.30;;;;;;;;;;5030088;28;20033;-49
2021/10/01 13:40:10;;;;;;;0.30;0.30;;;;;;;;;;5029597;28;20124;-46
2021/10/01 13:42:37;;;;;;;0.80;0.30;;;;;;;;;;5017455;28;20041;-46
2021/10/01 13:45:05;;;;;;;0.30;0.25;;;;;;;;;;5029159;28;20042;-47
2021/10/01 13:47:32;;;;;;;0.30;0.30;;;;;;;;;;5028459;28;20069;-45
2021/10/01 13:49:59;;;;;;;0.20;0.20;;;;;;;;;;5029847;28;20509;-46
2021/10/01 13:52:27;;;;;;;0.30;0.30;;;;;;;;;;5027501;28;20090;-47
2021/10/01 13:54:54;;;;;;;0.20;0.20;;;;;;;;;;5019879;28;20125;-46
2021/10/01 13:57:20;;;;;;;0.30;0.30;;;;;;;;;;5024135;28;20042;-47
2021/10/01 13:59:49;;;;;;;0.30;0.30;;;;;;;;;;5022781;28;20516;-46
2021/10/01 14:02:15;;;;;;;0.93;0.30;;;;;;;;;;5030409;28;20397;-48
2021/10/01 14:04:43;;;;;;;0.30;0.30;;;;;;;;;;5029056;28;20120;-47
2021/10/01 14:07:09;;;;;;;1.48;0.30;;;;;;;;;;5030353;28;20050;-48
2021/10/01 14:09:36;;;;;;;0.30;0.30;;;;;;;;;;5024968;28;20066;-47
2021/10/01 14:12:23;;;;;;;0.30;0.30;;;;;;;;;;5023671;28;20064;-47
2021/10/01 14:14:50;;;;;;;0.30;0.30;;;;;;;;;;5029581;28;20107;-46
2021/10/01 14:17:17;;;;;;;0.30;0.30;;;;;;;;;;5028316;28;20045;-47
2021/10/01 14:19:44;;;;;;;0.32;0.32;;;;;;;;;;5028053;28;20033;-49
2021/10/01 14:22:11;;;;;;;0.90;0.30;;;;;;;;;;5029907;28;20072;-46
2021/10/01 14:24:43;;;;;;;0.30;0.30;;;;;;;;;;5028699;28;20135;-47
2021/10/01 14:27:23;;;;;;;0.57;0.30;;;;;;;;;;5027056;28;20038;-49
2021/10/01 14:29:51;;;;;;;1.00;0.30;;;;;;;;;;5025922;28;20124;-47
2021/10/01 14:32:20;;;;;;;0.28;0.28;;;;;;;;;;5025404;28;20041;-47
2021/10/01 14:34:46;;;;;;;0.30;0.30;;;;;;;;;;5025120;28;20065;-47
2021/10/01 14:37:13;;;;;;;0.20;0.20;;;;;;;;;;5029375;28;20081;-47
2021/10/01 14:39:40;;;;;;;0.20;0.20;;;;;;;;;;5029597;28;20049;-46
2021/10/01 14:42:07;;;;;;;0.43;0.22;;;;;;;;;;5028911;28;20141;-46
2021/10/01 14:44:33;;;;;;;0.22;0.22;;;;;;;;;;5027436;28;20087;-50
2021/10/01 14:47:00;;;;;;;0.50;0.30;;;;;;;;;;5028221;28;20416;-49
2021/10/01 14:49:27;;;;;;;0.30;0.30;;;;;;;;;;5027051;28;20379;-47
2021/10/01 14:51:54;;;;;;;0.28;0.28;;;;;;;;;;5029353;28;20037;-49
2021/10/01 14:54:21;;;;;;;0.47;0.30;;;;;;;;;;5029110;28;20045;-49
2021/10/01 14:56:47;;;;;;;0.30;0.30;;;;;;;;;;5029744;28;20084;-46
2021/10/01 14:59:14;;;;;;;0.82;0.30;;;;;;;;;;5029623;28;20581;-49
2021/10/01 15:01:41;;;;;;;0.32;0.32;;;;;;;;;;5028150;28;20057;-47
2021/10/01 15:04:08;;;;;;;2.22;0.40;;;;;;;;;;5030015;28;20045;-47
2021/10/01 15:06:35;;;;;;;1.73;0.35;;;;;;;;;;5029181;28;20033;-48
2021/10/01 15:09:02;;;;;;;2.97;0.30;;;;;;;;;;5029329;28;20042;-48
2021/10/01 15:11:29;;;;;;;0.40;0.40;;;;;;;;;;5027008;28;20073;-49
2021/10/01 15:13:56;;;;;;;0.40;0.40;;;;;;;;;;5016169;28;20033;-46
2021/10/01 15:16:22;;;;;;;0.73;0.40;;;;;;;;;;5027803;28;20045;-46
2021/10/01 15:18:49;;;;;;;1.35;1.25;;;;;;;;;;5028579;28;20125;-45
2021/10/01 15:21:16;;;;;;;3.33;0.40;;;;;;;;;;5029186;28;20065;-47
2021/10/01 15:23:43;;;;;;;2.92;0.40;;;;;;;;;;5027536;28;20087;-48
2021/10/01 15:26:09;;;;;;;0.40;0.40;;;;;;;;;;5021959;28;20124;-46
2021/10/01 15:28:36;;;;;;;1.40;0.40;;;;;;;;;;5027563;28;20220;-47
2021/10/01 15:31:04;;;;;;;0.40;0.40;;;;;;;;;;5027647;28;20454;-47
2021/10/01 15:33:31;;;;;;;0.32;0.32;;;;;;;;;;5031201;28;20041;-46
2021/10/01 15:35:58;;;;;;;0.90;0.40;;;;;;;;;;5031913;28;20069;-47
2021/10/01 15:38:26;;;;;;;0.50;0.50;;;;;;;;;;5032311;28;20084;-49
2021/10/01 15:40:53;;;;;;;0.85;0.40;;;;;;;;;;5030406;28;20081;-45
2021/10/01 15:43:20;;;;;;;0.40;0.40;;;;;;;;;;5032132;28;20041;-46
2021/10/01 15:45:47;;;;;;;0.80;0.50;;;;;;;;;;5033730;28;20033;-45
2021/10/01 15:48:19;;;;;;;6.75;0.70;;;;;;;;;;5032485;28;20095;-47
2021/10/01 15:50:45;;;;;;;2.15;0.68;;;;;;;;;;5032267;28;20124;-47
2021/10/01 15:53:12;;;;;;;0.50;0.40;;;;;;;;;;5032075;28;20493;-47
2021/10/01 15:55:39;;;;;;;0.50;0.50;;;;;;;;;;5031858;28;20045;-46
2021/10/01 15:58:07;;;;;;;0.60;0.50;;;;;;;;;;5033482;28;20041;-45
2021/10/01 16:00:44;;;;;;;1.33;0.50;;;;;;;;;;5032411;28;20068;-46
2021/10/01 16:03:11;;;;;;;2.70;0.50;;;;;;;;;;5032276;28;20059;-47
2021/10/01 16:05:38;;;;;;;1.23;0.50;;;;;;;;;;5031245;28;20128;-46
2021/10/01 16:08:10;;;;;;;0.50;0.50;;;;;;;;;;5031560;28;20080;-49
2021/10/01 16:10:40;;;;;;;0.40;0.40;;;;;;;;;;5032788;28;20649;-46
2021/10/01 16:13:07;;;;;;;1.65;0.50;;;;;;;;;;5031300;28;20425;-47
2021/10/01 16:15:34;;;;;;;1.38;0.47;;;;;;;;;;5032224;28;20045;-46
2021/10/01 16:18:01;;;;;;;0.45;0.45;;;;;;;;;;5030279;28;20042;-48
2021/10/01 16:20:30;;;;;;;0.50;0.50;;;;;;;;;;5028587;28;20142;-49
2021/10/01 16:22:58;;;;;;;0.50;0.50;;;;;;;;;;5030608;28;20037;-46